Terminal Aerodrome Forecast
Issued by NWS Nashville, TN

Home | Current Version | Previous Version | Text Only | Print | Product List | Glossary On
Versions: 1 2 3 4 5 6 7 8 9 10 11 12 13 14 15 16 17
000
FTUS44 KOHX 311100
TAFBNA
TAF
KBNA 311133Z 3112/0112 00000KT P6SM BKN200
     FM311400 15005KT P6SM SCT060 BKN120
     FM010700 VRB02KT 5SM BR BKN200=

USA.gov is the U.S. government's official web portal to all federal, state and local government web resources and services.